Etusivu
METAR-TAF:

METAR-TAF

Lentoasemat :

Edson, Alberta, Kanada

Leveyspiiri: 53-35N, Pituuspiiri: 116-28W, korkeus merenpinnasta: 921 m

Tämänhetkinen sää

Tämä raportti tehtiin 26 minuuttia sitten, kello 13.00 UTC
Tuuli 5 kn lännestä
Lämpötila -1°C
Kosteus 100%
Ilmanpaine 1012 hPa
Näkyvyys: 14.5 km
Hajonneita pilviä 7000 ft:n korkeudessa
Pilvistä 9200 ft:n korkeudessa

METAR: CYET 131300Z AUTO 27005KT 9SM BKN070 OVC092 M01/M01 A2989 RMK SLP158

Aika: 06:26 (13:26 UTC)


TAF: puuttuu

Säähavainnot ja -ennusteet yli 4000 lentoasemalta (METAR- ja TAF-raportit).

Käytössä olevat sääasemat on merkitty karttaan keltaisilla ja punaisilla pisteillä.

Aseta hiiri pisteen päälle nähdäksesi sääaseman nimen.

Klikkaa sitten nähdäksesi säähavainnot ja -ennusteet.

Kartan vaihtaminen: klikkaa mustalla rastilla varustettuja vihreitä pisteitä, niin voit zoomata sisään; viivalla varustettua vihreää pistettä, niin voit zoomata ulos tai vihreitä nuolia, niin pääset viereisille kartoille.


METAR-TAF: